createdAt,value
2024-04-08T00:00:53.165Z,15.78
2024-04-08T00:03:40.822Z,15.75
2024-04-08T00:06:08.545Z,15.76
2024-04-08T00:08:36.235Z,15.76
2024-04-08T00:11:08.549Z,15.77
2024-04-08T00:13:39.813Z,15.79
2024-04-08T00:16:07.801Z,15.78
2024-04-08T00:18:35.532Z,15.76
2024-04-08T00:21:04.762Z,15.74
2024-04-08T00:23:33.476Z,15.74
2024-04-08T00:26:05.108Z,15.76
2024-04-08T00:28:38.556Z,15.78
2024-04-08T00:31:08.091Z,15.79
2024-04-08T00:33:36.042Z,15.77
2024-04-08T00:36:05.158Z,15.78
2024-04-08T00:38:33.122Z,15.79
2024-04-08T00:41:03.869Z,15.78
2024-04-08T00:43:31.742Z,15.78
2024-04-08T00:46:00.268Z,15.79
2024-04-08T00:48:28.886Z,15.75
2024-04-08T00:50:56.915Z,15.67
2024-04-08T00:53:24.819Z,15.60
2024-04-08T00:55:53.849Z,15.56
2024-04-08T00:58:22.102Z,15.56
2024-04-08T01:00:51.151Z,15.53
2024-04-08T01:03:19.989Z,15.52
2024-04-08T01:05:50.735Z,15.53
2024-04-08T01:08:18.836Z,15.54
2024-04-08T01:10:46.912Z,15.54
2024-04-08T01:13:14.679Z,15.54
2024-04-08T01:15:44.758Z,15.54
2024-04-08T01:18:14.712Z,15.53
2024-04-08T01:20:44.279Z,15.51
2024-04-08T01:23:15.654Z,15.51
2024-04-08T01:25:43.982Z,15.51
2024-04-08T01:28:11.788Z,15.49
2024-04-08T01:30:40.363Z,15.51
2024-04-08T01:33:08.267Z,15.51
2024-04-08T01:35:35.925Z,15.49
2024-04-08T01:38:03.666Z,15.48
2024-04-08T01:40:31.386Z,15.47
2024-04-08T01:42:59.020Z,15.45
2024-04-08T01:45:26.761Z,15.44
2024-04-08T01:47:54.590Z,15.41
2024-04-08T01:50:22.384Z,15.38
2024-04-08T01:52:50.036Z,15.39
2024-04-08T01:55:17.653Z,15.38
2024-04-08T01:57:45.343Z,15.36
2024-04-08T02:00:13.166Z,15.36
2024-04-08T02:02:41.345Z,15.37
2024-04-08T02:05:09.030Z,15.39
2024-04-08T02:07:36.721Z,15.36
2024-04-08T02:10:04.669Z,15.31
2024-04-08T02:12:32.699Z,15.24
2024-04-08T02:15:00.501Z,15.19
2024-04-08T02:17:28.419Z,15.17
2024-04-08T02:19:57.491Z,15.17
2024-04-08T02:22:25.103Z,15.16
2024-04-08T02:24:52.896Z,15.12
2024-04-08T02:27:20.570Z,15.08
2024-04-08T02:29:48.233Z,14.97
2024-04-08T02:32:16.018Z,14.87
2024-04-08T02:34:43.768Z,14.78
2024-04-08T02:37:11.504Z,14.67
2024-04-08T02:39:39.214Z,14.54
2024-04-08T02:42:07.404Z,14.39
2024-04-08T02:44:35.142Z,14.27
2024-04-08T02:47:03.219Z,14.15
2024-04-08T02:49:32.819Z,14.08
2024-04-08T02:52:00.609Z,14.03
2024-04-08T02:54:28.416Z,13.97
2024-04-08T02:56:56.203Z,13.90
2024-04-08T02:59:24.728Z,13.81
2024-04-08T03:01:52.452Z,13.73
2024-04-08T03:04:20.264Z,13.67
2024-04-08T03:06:47.989Z,13.61
2024-04-08T03:09:15.763Z,13.58
2024-04-08T03:11:43.506Z,13.58
2024-04-08T03:14:12.031Z,13.55
2024-04-08T03:16:40.194Z,13.51
2024-04-08T03:19:07.975Z,13.49
2024-04-08T03:21:35.758Z,13.48
2024-04-08T03:24:03.557Z,13.47
2024-04-08T03:26:31.410Z,13.48
2024-04-08T03:28:59.180Z,13.52
2024-04-08T03:31:26.990Z,13.58
2024-04-08T03:33:55.260Z,13.62
2024-04-08T03:36:22.976Z,13.65
2024-04-08T03:38:50.824Z,13.68
2024-04-08T03:41:18.680Z,13.64
2024-04-08T03:43:48.524Z,13.59
2024-04-08T03:46:16.240Z,13.59
2024-04-08T03:48:44.450Z,13.57
2024-04-08T03:51:13.319Z,13.55
2024-04-08T03:53:41.293Z,13.54
2024-04-08T03:56:13.526Z,13.58
2024-04-08T03:58:42.319Z,13.63
2024-04-08T04:01:12.939Z,13.68
2024-04-08T04:03:40.743Z,13.71
2024-04-08T04:06:09.339Z,13.72
2024-04-08T04:08:37.304Z,13.75
2024-04-08T04:11:07.009Z,13.79
2024-04-08T04:13:35.232Z,13.84
2024-04-08T04:16:07.080Z,13.87
2024-04-08T04:18:34.950Z,13.91
2024-04-08T04:21:04.084Z,13.96
2024-04-08T04:23:31.865Z,14.00
2024-04-08T04:26:00.678Z,14.03
2024-04-08T04:28:28.979Z,14.06
2024-04-08T04:31:00.862Z,14.10
2024-04-08T04:33:30.042Z,14.14
2024-04-08T04:35:59.608Z,14.18
2024-04-08T04:38:27.839Z,14.21
2024-04-08T04:41:06.844Z,14.24
2024-04-08T04:43:35.154Z,14.28
2024-04-08T04:46:04.350Z,14.32
2024-04-08T04:48:32.846Z,14.37
2024-04-08T04:51:00.635Z,14.41
2024-04-08T04:53:28.397Z,14.44
2024-04-08T04:55:56.292Z,14.49
2024-04-08T04:58:24.021Z,14.56
2024-04-08T05:00:52.116Z,14.60
2024-04-08T05:03:20.867Z,14.65
2024-04-08T05:05:56.788Z,14.70
2024-04-08T05:08:24.920Z,14.77
2024-04-08T05:10:53.137Z,14.87
2024-04-08T05:13:21.207Z,14.97
2024-04-08T05:15:59.973Z,15.09
2024-04-08T05:18:29.173Z,15.23
2024-04-08T05:20:57.963Z,15.35
2024-04-08T05:23:29.349Z,15.49
2024-04-08T05:25:57.149Z,15.61
2024-04-08T05:28:25.214Z,15.68
2024-04-08T05:30:53.538Z,15.79
2024-04-08T05:33:21.542Z,15.88
2024-04-08T05:35:49.373Z,15.95
2024-04-08T05:38:17.186Z,16.04
2024-04-08T05:40:44.942Z,16.11
2024-04-08T05:43:16.692Z,16.16
2024-04-08T05:45:44.609Z,16.24
2024-04-08T05:48:12.945Z,16.32
2024-04-08T05:50:40.831Z,16.39
2024-04-08T05:53:08.724Z,16.47
2024-04-08T05:55:36.575Z,16.56
2024-04-08T05:58:04.837Z,16.61
2024-04-08T06:00:35.107Z,16.64
2024-04-08T06:03:03.637Z,16.70
2024-04-08T06:05:32.595Z,16.75
2024-04-08T06:08:00.350Z,16.77
2024-04-08T06:10:32.166Z,16.83
2024-04-08T06:13:00.744Z,16.86
2024-04-08T06:15:29.682Z,16.89
2024-04-08T06:17:57.764Z,16.89
2024-04-08T06:20:25.721Z,16.89
2024-04-08T06:22:53.479Z,16.93
2024-04-08T06:25:21.426Z,16.98
2024-04-08T06:27:49.155Z,17.01
2024-04-08T06:30:17.159Z,17.05
2024-04-08T06:32:50.027Z,17.08
2024-04-08T06:35:18.420Z,17.13
2024-04-08T06:37:46.400Z,17.17
2024-04-08T06:40:14.423Z,17.25
2024-04-08T06:42:42.190Z,17.36
2024-04-08T06:45:22.889Z,17.53
2024-04-08T06:48:10.682Z,17.80
2024-04-08T06:50:38.591Z,17.99
2024-04-08T06:53:06.321Z,18.15
2024-04-08T06:55:34.593Z,18.33
2024-04-08T06:58:13.088Z,18.51
2024-04-08T07:00:42.389Z,18.65
2024-04-08T07:03:10.821Z,18.77
2024-04-08T07:05:39.181Z,18.89
2024-04-08T07:08:07.222Z,18.99
2024-04-08T07:10:41.495Z,19.14
2024-04-08T07:13:25.782Z,19.36
2024-04-08T07:15:56.577Z,19.52
2024-04-08T07:18:27.383Z,19.65
2024-04-08T07:21:03.552Z,19.79
2024-04-08T07:23:31.842Z,19.94
2024-04-08T07:26:02.460Z,20.12
2024-04-08T07:28:30.296Z,20.29
2024-04-08T07:30:58.235Z,20.48
2024-04-08T07:33:25.961Z,20.65
2024-04-08T07:35:53.826Z,20.80
2024-04-08T07:38:21.707Z,20.98
2024-04-08T07:40:49.464Z,21.14
2024-04-08T07:43:17.234Z,21.25
2024-04-08T07:45:46.845Z,21.39
2024-04-08T07:48:15.467Z,21.52
2024-04-08T07:50:43.281Z,21.66
2024-04-08T07:53:11.020Z,21.78
2024-04-08T07:55:38.731Z,21.91
2024-04-08T07:58:06.469Z,22.01
2024-04-08T08:00:35.235Z,22.07
2024-04-08T08:03:03.555Z,22.15
2024-04-08T08:05:32.315Z,22.26
2024-04-08T08:08:03.187Z,22.33
2024-04-08T08:10:30.956Z,22.41
2024-04-08T08:12:58.771Z,22.45
2024-04-08T08:15:27.682Z,22.47
2024-04-08T08:17:55.642Z,22.49
2024-04-08T08:20:23.616Z,22.50
2024-04-08T08:23:15.701Z,22.52
2024-04-08T08:25:43.629Z,22.55
2024-04-08T08:28:11.408Z,22.64
2024-04-08T08:30:39.441Z,22.72
2024-04-08T08:33:07.867Z,22.75
2024-04-08T08:35:35.701Z,22.79
2024-04-08T08:38:03.590Z,22.84
2024-04-08T08:40:33.350Z,22.91
2024-04-08T08:43:01.130Z,23.04
2024-04-08T08:45:29.092Z,23.17
2024-04-08T08:47:56.937Z,23.32
2024-04-08T08:50:27.130Z,23.44
2024-04-08T08:52:54.900Z,23.50
2024-04-08T08:55:25.705Z,23.56
2024-04-08T08:57:54.747Z,23.63
2024-04-08T09:00:23.293Z,23.65
2024-04-08T09:02:52.538Z,23.64
2024-04-08T09:05:20.296Z,23.61
2024-04-08T09:07:48.072Z,23.65
2024-04-08T09:10:15.826Z,23.65
2024-04-08T09:12:44.133Z,23.68
2024-04-08T09:15:13.447Z,23.69
2024-04-08T09:17:42.753Z,23.70
2024-04-08T09:20:12.407Z,23.73
2024-04-08T09:22:40.143Z,23.77
2024-04-08T09:25:13.544Z,23.82
2024-04-08T09:27:41.865Z,23.83
2024-04-08T09:30:10.120Z,23.81
2024-04-08T09:32:38.554Z,23.84
2024-04-08T09:35:09.110Z,23.85
2024-04-08T09:37:37.191Z,23.85
2024-04-08T09:40:06.538Z,23.89
2024-04-08T09:42:34.778Z,23.98
2024-04-08T09:45:04.446Z,24.03
2024-04-08T09:47:33.826Z,24.08
2024-04-08T09:50:05.368Z,24.10
2024-04-08T09:52:33.493Z,24.16
2024-04-08T09:55:01.276Z,24.21
2024-04-08T09:57:32.498Z,24.23
2024-04-08T10:00:03.508Z,24.22
2024-04-08T10:02:40.264Z,24.25
2024-04-08T10:05:08.250Z,24.28
2024-04-08T10:07:37.016Z,24.27
2024-04-08T10:10:05.740Z,24.27
2024-04-08T10:12:38.055Z,24.26
2024-04-08T10:15:16.501Z,24.32
2024-04-08T10:17:45.850Z,24.38
2024-04-08T10:20:16.897Z,24.40
2024-04-08T10:22:45.695Z,24.41
2024-04-08T10:25:38.830Z,24.43
2024-04-08T10:28:06.956Z,24.47
2024-04-08T10:30:37.100Z,24.46
2024-04-08T10:46:05.025Z,24.69
2024-04-08T10:48:41.341Z,24.64
2024-04-08T10:51:17.616Z,24.59
2024-04-08T10:53:45.543Z,24.56
2024-04-08T10:56:13.369Z,24.51
2024-04-08T10:58:41.038Z,24.55
2024-04-08T11:01:09.959Z,24.56
2024-04-08T11:03:38.797Z,24.58
2024-04-08T11:06:06.833Z,24.55
2024-04-08T11:08:34.675Z,24.54
2024-04-08T11:11:02.650Z,24.56
2024-04-08T11:13:30.773Z,24.52
2024-04-08T11:15:59.818Z,24.49
2024-04-08T11:18:27.744Z,24.47
2024-04-08T11:20:55.776Z,24.47
2024-04-08T11:23:24.279Z,24.47
2024-04-08T11:25:54.523Z,24.49
2024-04-08T11:28:28.113Z,24.55
2024-04-08T11:30:56.167Z,24.60
2024-04-08T11:33:24.100Z,24.59
2024-04-08T11:35:51.960Z,24.56
2024-04-08T11:38:30.352Z,24.56
2024-04-08T11:41:11.529Z,24.58
2024-04-08T11:43:42.282Z,24.63
2024-04-08T11:46:13.276Z,24.65
2024-04-08T11:48:42.464Z,24.68
2024-04-08T11:51:10.342Z,24.69
2024-04-08T11:53:38.144Z,24.68
2024-04-08T11:56:11.921Z,24.71
2024-04-08T11:58:41.572Z,24.74
2024-04-08T12:01:10.915Z,24.78
2024-04-08T12:03:38.779Z,24.80
2024-04-08T12:06:10.212Z,24.81
2024-04-08T12:08:38.058Z,24.86
2024-04-08T12:11:06.628Z,24.90
2024-04-08T12:13:34.449Z,24.93
2024-04-08T12:16:02.325Z,24.92
2024-04-08T12:18:30.283Z,24.91
2024-04-08T12:20:58.458Z,24.94
2024-04-08T12:23:26.367Z,24.98
2024-04-08T12:25:54.112Z,25.01
2024-04-08T12:28:21.905Z,25.02
2024-04-08T12:30:49.752Z,25.02
2024-04-08T12:33:20.112Z,25.04
2024-04-08T12:35:48.302Z,25.06
2024-04-08T12:38:16.103Z,25.04
2024-04-08T12:40:48.263Z,25.03
2024-04-08T12:43:15.968Z,25.03
2024-04-08T12:45:44.436Z,25.04
2024-04-08T12:48:14.674Z,25.04
2024-04-08T12:50:46.502Z,25.05
2024-04-08T12:53:16.713Z,25.04
2024-04-08T12:55:53.309Z,25.05
2024-04-08T12:58:23.741Z,25.06
2024-04-08T13:00:52.419Z,25.03
2024-04-08T13:03:20.556Z,25.05
2024-04-08T13:05:53.271Z,25.10
2024-04-08T13:08:21.168Z,25.09
2024-04-08T13:10:48.905Z,25.10
2024-04-08T13:13:16.705Z,25.15
2024-04-08T13:15:44.590Z,25.18
2024-04-08T13:18:12.593Z,25.20
2024-04-08T13:20:40.464Z,25.22
2024-04-08T13:23:08.222Z,25.22
2024-04-08T13:25:40.145Z,25.29
2024-04-08T13:28:10.299Z,25.38
2024-04-08T13:30:38.452Z,25.39
2024-04-08T13:33:06.696Z,25.40
2024-04-08T13:35:34.592Z,25.43
2024-04-08T13:38:02.537Z,25.44
2024-04-08T13:40:30.251Z,25.45
2024-04-08T13:42:57.988Z,25.47
2024-04-08T13:45:26.054Z,25.52
2024-04-08T13:47:56.090Z,25.51
2024-04-08T13:50:24.602Z,25.43
2024-04-08T13:52:53.647Z,25.33
2024-04-08T13:55:27.256Z,25.29
2024-04-08T13:57:58.308Z,25.29
2024-04-08T14:00:27.477Z,25.25
2024-04-08T14:03:03.074Z,25.24
2024-04-08T14:05:32.149Z,25.26
2024-04-08T14:08:22.913Z,25.29
2024-04-08T14:10:51.635Z,25.29
2024-04-08T14:13:19.494Z,25.27
2024-04-08T14:15:47.584Z,25.23
2024-04-08T14:18:15.572Z,25.17
2024-04-08T14:20:43.690Z,25.08
2024-04-08T14:23:11.430Z,25.00
2024-04-08T14:25:39.195Z,24.95
2024-04-08T14:28:08.756Z,24.89
2024-04-08T14:30:51.165Z,24.86
2024-04-08T14:33:24.959Z,24.82
2024-04-08T14:35:54.459Z,24.78
2024-04-08T14:38:46.580Z,24.76
2024-04-08T14:41:10.241Z,24.79
2024-04-08T14:43:44.072Z,24.76
2024-04-08T14:46:19.164Z,24.69
2024-04-08T14:48:47.298Z,24.65
2024-04-08T14:51:15.878Z,24.64
2024-04-08T14:53:45.999Z,24.63
2024-04-08T14:56:14.815Z,24.61
2024-04-08T14:58:45.867Z,24.58
2024-04-08T15:01:14.965Z,24.55
2024-04-08T15:03:42.734Z,24.53
2024-04-08T15:06:10.756Z,24.51
2024-04-08T15:08:38.520Z,24.46
2024-04-08T15:11:08.779Z,24.41
2024-04-08T15:13:36.738Z,24.40
2024-04-08T15:16:04.746Z,24.42
2024-04-08T15:18:33.371Z,24.46
2024-04-08T15:21:01.249Z,24.46
2024-04-08T15:23:31.796Z,24.43
2024-04-08T15:25:59.915Z,24.35
2024-04-08T15:28:28.067Z,24.30
2024-04-08T15:31:00.248Z,24.29
2024-04-08T15:33:28.416Z,24.29
2024-04-08T15:36:06.022Z,24.28
2024-04-08T15:38:33.795Z,24.31
2024-04-08T15:41:01.755Z,24.34
2024-04-08T15:43:30.502Z,24.36
2024-04-08T15:46:00.041Z,24.38
2024-04-08T15:48:29.870Z,24.44
2024-04-08T15:51:03.553Z,24.44
2024-04-08T15:53:31.540Z,24.37
2024-04-08T15:55:59.772Z,24.36
2024-04-08T15:58:28.466Z,24.34
2024-04-08T16:00:57.542Z,24.34
2024-04-08T16:03:25.492Z,24.36
2024-04-08T16:05:53.681Z,24.38
2024-04-08T16:08:21.662Z,24.36
2024-04-08T16:10:49.741Z,24.37
2024-04-08T16:13:19.232Z,24.33
2024-04-08T16:15:50.815Z,24.29
2024-04-08T16:18:23.485Z,24.23
2024-04-08T16:20:58.944Z,24.11
2024-04-08T16:26:02.500Z,23.83
2024-04-08T16:28:30.655Z,23.71
2024-04-08T16:31:03.681Z,23.61
2024-04-08T16:33:32.864Z,23.56
2024-04-08T16:36:02.205Z,23.52
2024-04-08T16:38:30.084Z,23.47
2024-04-08T16:40:58.488Z,23.44
2024-04-08T16:43:26.368Z,23.39
2024-04-08T16:45:58.162Z,23.38
2024-04-08T16:48:28.866Z,23.36
2024-04-08T16:50:59.367Z,23.29
2024-04-08T16:53:28.615Z,23.21
2024-04-08T16:55:58.018Z,23.13
2024-04-08T16:58:39.696Z,23.09
2024-04-08T17:01:10.233Z,23.01
2024-04-08T17:03:38.291Z,22.93
2024-04-08T17:06:16.690Z,22.87
2024-04-08T17:08:50.580Z,22.79
2024-04-08T17:11:20.865Z,22.72
2024-04-08T17:13:48.714Z,22.67
2024-04-08T17:16:16.385Z,22.55
2024-04-08T17:18:44.314Z,22.41
2024-04-08T17:21:12.176Z,22.31
2024-04-08T17:23:39.977Z,22.26
2024-04-08T17:26:07.808Z,22.20
2024-04-08T17:28:36.537Z,22.15
2024-04-08T17:31:05.593Z,22.07
2024-04-08T17:33:34.493Z,21.99
2024-04-08T17:36:07.057Z,21.92
2024-04-08T17:38:41.609Z,21.86
2024-04-08T17:41:11.031Z,21.77
2024-04-08T17:43:43.492Z,21.71
2024-04-08T17:46:11.518Z,21.64
2024-04-08T17:48:39.808Z,21.60
2024-04-08T17:51:08.803Z,21.58
2024-04-08T17:53:37.110Z,21.55
2024-04-08T17:56:14.699Z,21.48
2024-04-08T17:58:44.879Z,21.39
2024-04-08T18:01:19.278Z,21.32
2024-04-08T18:03:50.124Z,21.23
2024-04-08T18:06:23.144Z,21.18
2024-04-08T18:08:52.807Z,21.12
2024-04-08T18:11:26.072Z,21.06
2024-04-08T18:13:54.364Z,20.94
2024-04-08T18:16:22.431Z,20.85
2024-04-08T18:18:53.116Z,20.79
2024-04-08T18:21:23.448Z,20.67
2024-04-08T18:23:51.465Z,20.54
2024-04-08T18:26:21.346Z,20.47
2024-04-08T18:28:51.426Z,20.39
2024-04-08T18:31:21.075Z,20.34
2024-04-08T18:33:51.472Z,20.30
2024-04-08T18:36:20.192Z,20.23
2024-04-08T18:38:51.834Z,20.17
2024-04-08T18:41:20.456Z,20.10
2024-04-08T18:43:49.432Z,20.02
2024-04-08T18:46:21.976Z,19.98
2024-04-08T18:48:50.443Z,19.96
2024-04-08T18:51:18.781Z,19.94
2024-04-08T18:53:47.031Z,19.89
2024-04-08T18:56:16.459Z,19.87
2024-04-08T18:58:44.226Z,19.85
2024-04-08T19:01:21.568Z,19.83
2024-04-08T19:03:54.260Z,19.81
2024-04-08T19:06:22.251Z,19.79
2024-04-08T19:08:50.274Z,19.73
2024-04-08T19:11:18.916Z,19.69
2024-04-08T19:13:49.758Z,19.66
2024-04-08T19:16:17.535Z,19.61
2024-04-08T19:18:48.168Z,19.57
2024-04-08T19:21:16.517Z,19.55
2024-04-08T19:23:45.597Z,19.52
2024-04-08T19:26:14.879Z,19.48
2024-04-08T19:28:43.666Z,19.40
2024-04-08T19:31:13.835Z,19.35
2024-04-08T19:33:45.293Z,19.30
2024-04-08T19:36:14.104Z,19.25
2024-04-08T19:38:41.869Z,19.22
2024-04-08T19:41:11.023Z,19.18
2024-04-08T19:43:39.434Z,19.09
2024-04-08T19:46:12.996Z,19.02
2024-04-08T19:48:44.450Z,18.93
2024-04-08T19:51:17.378Z,18.91
2024-04-08T19:53:48.204Z,18.86
2024-04-08T19:56:18.431Z,18.81
2024-04-08T19:58:46.603Z,18.75
2024-04-08T20:01:14.387Z,18.68
2024-04-08T20:03:43.043Z,18.66
2024-04-08T20:06:11.437Z,18.64
2024-04-08T20:08:40.583Z,18.57
2024-04-08T20:11:12.690Z,18.55
2024-04-08T20:13:42.143Z,18.54
2024-04-08T20:16:21.646Z,18.54
2024-04-08T20:18:51.058Z,18.51
2024-04-08T20:21:26.552Z,18.44
2024-04-08T20:23:54.404Z,18.37
2024-04-08T20:26:22.337Z,18.32
2024-04-08T20:28:50.098Z,18.25
2024-04-08T20:31:17.860Z,18.18
2024-04-08T20:33:45.834Z,18.13
2024-04-08T20:36:15.053Z,18.06
2024-04-08T20:38:43.063Z,18.02
2024-04-08T20:41:14.095Z,17.98
2024-04-08T20:43:42.182Z,17.94
2024-04-08T20:46:10.178Z,17.89
2024-04-08T20:48:38.719Z,17.82
2024-04-08T20:51:06.974Z,17.78
2024-04-08T20:53:35.219Z,17.73
2024-04-08T20:56:05.463Z,17.65
2024-04-08T20:58:34.092Z,17.59
2024-04-08T21:01:07.570Z,17.52
2024-04-08T21:03:36.917Z,17.42
2024-04-08T21:06:08.856Z,17.39
2024-04-08T21:13:15.619Z,17.35
2024-04-08T21:15:42.336Z,17.28
2024-04-08T21:18:09.184Z,17.26
2024-04-08T21:20:35.890Z,17.26
2024-04-08T21:23:04.343Z,17.27
2024-04-08T21:25:31.534Z,17.28
2024-04-08T21:27:58.205Z,17.27
2024-04-08T21:30:24.912Z,17.25
2024-04-08T21:32:51.925Z,17.23
2024-04-08T21:35:18.752Z,17.19
2024-04-08T21:37:45.700Z,17.15
2024-04-08T21:40:12.378Z,17.13
2024-04-08T21:42:39.539Z,17.10
2024-04-08T21:45:06.566Z,17.07
2024-04-08T21:47:34.044Z,17.04
2024-04-08T21:50:00.773Z,17.03
2024-04-08T21:52:27.398Z,17.04
2024-04-08T21:54:54.040Z,17.02
2024-04-08T21:57:20.782Z,16.98
2024-04-08T21:59:47.701Z,16.97
2024-04-08T22:02:14.293Z,17.02
2024-04-08T22:07:26.640Z,17.09
2024-04-08T22:09:54.267Z,17.07
2024-04-08T22:12:22.523Z,17.06
2024-04-08T22:14:50.294Z,17.07
2024-04-08T22:17:24.408Z,17.05
2024-04-08T22:19:52.689Z,16.99
2024-04-08T22:22:20.379Z,16.91
2024-04-08T22:24:48.173Z,16.84
2024-04-08T22:27:15.989Z,16.79
2024-04-08T22:29:43.745Z,16.75
2024-04-08T22:32:13.655Z,16.71
2024-04-08T22:34:41.519Z,16.68
2024-04-08T22:37:09.593Z,16.65
2024-04-08T22:39:40.401Z,16.62
2024-04-08T22:42:09.607Z,16.59
2024-04-08T22:44:37.668Z,16.56
2024-04-08T22:47:05.360Z,16.52
2024-04-08T22:49:33.167Z,16.46
2024-04-08T22:52:00.864Z,16.41
2024-04-08T22:54:28.652Z,16.36
2024-04-08T22:56:56.475Z,16.32
2024-04-08T22:59:24.333Z,16.30
2024-04-08T23:01:52.130Z,16.28
2024-04-08T23:04:21.656Z,16.26
2024-04-08T23:06:49.497Z,16.22
2024-04-08T23:09:17.307Z,16.19
2024-04-08T23:11:45.392Z,16.18
2024-04-08T23:14:13.302Z,16.18
2024-04-08T23:16:41.107Z,16.15
2024-04-08T23:19:09.055Z,16.11
2024-04-08T23:21:36.975Z,16.08
2024-04-08T23:24:04.889Z,16.04
2024-04-08T23:26:32.668Z,16.03
2024-04-08T23:29:00.405Z,16.03
2024-04-08T23:31:28.237Z,15.99
2024-04-08T23:33:56.104Z,15.94
2024-04-08T23:36:23.872Z,15.90
2024-04-08T23:38:51.557Z,15.85
2024-04-08T23:41:20.312Z,15.80
2024-04-08T23:43:47.933Z,15.78
2024-04-08T23:46:15.958Z,15.75
2024-04-08T23:48:43.736Z,15.71
2024-04-08T23:51:11.580Z,15.68
2024-04-08T23:53:39.477Z,15.63
2024-04-08T23:56:07.247Z,15.61
2024-04-08T23:58:34.892Z,15.60
